Time;durP1;ratioP1;P1;durP2;ratioP2;P2;SDS_P1;SDS_P2;PMS_P1;PMS_P2;Temp;Humidity;BMP_temperature;BMP_pressure;BME280_temperature;BME280_humidity;BME280_pressure;Samples;Min_cycle;Max_cycle;Signal;HPM_P1;HPM_P2
2024/01/11 00:03:43;;;;;;;82.30;59.90;;;22.80;52.10;;;;;;222444;1265;23674;-52
2024/01/11 00:08:47;;;;;;;86.80;59.10;;;22.80;52.40;;;;;;222582;1266;22521;-53
2024/01/11 00:13:52;;;;;;;82.60;59.30;;;22.80;52.20;;;;;;222657;1266;22850;-50
2024/01/11 00:18:56;;;;;;;86.50;59.40;;;22.60;51.30;;;;;;222347;1260;22549;-51
2024/01/11 00:24:01;;;;;;;85.90;59.30;;;23.00;50.60;;;;;;222612;1254;22860;-53
2024/01/11 00:29:05;;;;;;;81.00;55.20;;;23.30;49.30;;;;;;225515;1266;22969;-55
2024/01/11 00:34:09;;;;;;;76.30;55.60;;;23.50;48.50;;;;;;222619;1267;22548;-51
2024/01/11 00:39:13;;;;;;;82.00;57.50;;;23.40;48.10;;;;;;222206;1266;24193;-55
2024/01/11 00:44:18;;;;;;;82.50;57.60;;;23.50;48.00;;;;;;222092;1261;23434;-53
2024/01/11 00:49:22;;;;;;;84.00;56.30;;;23.40;48.00;;;;;;222240;1268;22524;-52
2024/01/11 00:54:27;;;;;;;81.70;57.00;;;23.20;48.20;;;;;;222082;1268;24196;-50
2024/01/11 00:59:32;;;;;;;75.00;56.40;;;23.10;48.20;;;;;;222602;1256;22580;-51
2024/01/11 01:04:39;;;;;;;74.20;55.60;;;22.80;48.50;;;;;;222484;1264;22548;-54
2024/01/11 01:09:44;;;;;;;74.70;55.30;;;22.60;48.90;;;;;;222452;1263;22631;-51
2024/01/11 01:14:48;;;;;;;71.90;55.90;;;22.50;49.00;;;;;;222460;1268;22525;-53
2024/01/11 01:19:52;;;;;;;72.50;55.20;;;22.30;48.90;;;;;;222708;1256;22537;-53
2024/01/11 01:24:57;;;;;;;76.30;54.30;;;22.30;48.70;;;;;;222546;1268;22833;-52
2024/01/11 01:30:01;;;;;;;74.70;54.40;;;22.30;48.40;;;;;;222199;1267;23807;-53
2024/01/11 01:35:05;;;;;;;73.40;55.40;;;22.40;48.00;;;;;;222698;1260;24358;-51
2024/01/11 01:40:11;;;;;;;75.90;54.10;;;22.50;47.90;;;;;;222469;1261;24308;-51
2024/01/11 01:45:16;;;;;;;73.40;52.70;;;22.60;47.50;;;;;;222475;1261;22606;-53
2024/01/11 01:50:21;;;;;;;71.10;54.40;;;22.70;47.10;;;;;;222432;1264;25432;-52
2024/01/11 01:55:27;;;;;;;75.00;53.50;;;22.90;47.40;;;;;;222902;1260;22760;-54
2024/01/11 02:00:32;;;;;;;67.50;51.90;;;23.00;47.20;;;;;;222693;1261;22511;-54
2024/01/11 02:05:40;;;;;;;73.00;53.70;;;23.00;46.60;;;;;;222444;1260;22517;-51
2024/01/11 02:10:45;;;;;;;71.50;52.90;;;23.00;46.60;;;;;;226288;1261;22540;-52
2024/01/11 02:15:50;;;;;;;75.40;53.30;;;23.10;46.20;;;;;;222047;1267;25393;-52
2024/01/11 02:20:55;;;;;;;70.90;51.50;;;23.10;45.90;;;;;;228899;1264;22524;-53
2024/01/11 02:25:59;;;;;;;67.00;52.60;;;22.90;45.90;;;;;;230557;1264;22160;-54
2024/01/11 02:31:03;;;;;;;70.20;51.60;;;23.00;46.10;;;;;;223609;1264;22520;-54
2024/01/11 02:36:08;;;;;;;71.30;53.40;;;22.80;46.40;;;;;;222767;1267;22523;-53
2024/01/11 02:41:16;;;;;;;72.40;53.50;;;22.40;47.30;;;;;;223255;1257;22752;-52
2024/01/11 02:46:21;;;;;;;73.30;54.30;;;22.30;47.30;;;;;;222614;1266;22521;-54
2024/01/11 02:51:25;;;;;;;74.20;55.50;;;22.40;46.50;;;;;;222783;1267;22637;-53
2024/01/11 02:56:29;;;;;;;72.40;54.30;;;22.50;46.50;;;;;;222591;1264;24190;-51
2024/01/11 03:01:34;;;;;;;73.60;52.50;;;22.40;46.20;;;;;;222932;1268;24263;-53
2024/01/11 03:06:39;;;;;;;71.50;53.40;;;22.40;46.40;;;;;;223234;1267;25360;-51
2024/01/11 03:11:43;;;;;;;70.50;51.60;;;22.50;46.10;;;;;;222326;1263;22530;-50
2024/01/11 03:16:47;;;;;;;71.20;51.30;;;22.50;46.10;;;;;;222360;1261;25580;-49
2024/01/11 03:21:52;;;;;;;70.20;52.00;;;22.60;45.80;;;;;;222649;1266;25495;-55
2024/01/11 03:26:56;;;;;;;70.80;50.90;;;22.80;45.50;;;;;;222284;1264;22548;-53
2024/01/11 03:32:00;;;;;;;70.40;51.60;;;22.90;45.30;;;;;;223016;1264;25308;-54
2024/01/11 03:37:05;;;;;;;68.60;52.30;;;23.00;45.40;;;;;;222951;1244;22520;-50
2024/01/11 03:42:10;;;;;;;68.70;51.40;;;22.90;45.60;;;;;;222831;1244;23852;-53
2024/01/11 03:47:14;;;;;;;69.30;51.60;;;23.00;44.80;;;;;;222600;1264;22538;-52
2024/01/11 03:52:19;;;;;;;68.10;52.70;;;22.90;45.20;;;;;;222654;1260;25284;-50
2024/01/11 03:57:23;;;;;;;69.90;53.60;;;22.80;45.20;;;;;;222900;1264;24236;-52
2024/01/11 04:02:27;;;;;;;67.70;50.30;;;22.60;45.30;;;;;;223394;1264;22758;-50
2024/01/11 04:07:31;;;;;;;66.30;51.00;;;22.50;46.30;;;;;;222338;1265;24196;-50
2024/01/11 04:12:37;;;;;;;69.10;49.00;;;22.40;45.60;;;;;;230292;1260;22163;-53
2024/01/11 04:17:40;;;;;;;68.40;49.20;;;22.50;45.20;;;;;;225740;1264;22517;-53
2024/01/11 04:22:45;;;;;;;70.80;51.30;;;22.60;45.10;;;;;;230245;1266;22237;-55
2024/01/11 04:27:49;;;;;;;62.00;49.80;;;22.50;45.10;;;;;;228926;1263;25358;-52
2024/01/11 04:32:53;;;;;;;64.90;50.00;;;22.60;45.10;;;;;;223263;1264;24241;-54
2024/01/11 04:37:58;;;;;;;67.10;49.90;;;22.60;45.10;;;;;;222520;1251;23555;-54
2024/01/11 04:43:03;;;;;;;68.10;50.40;;;22.70;45.00;;;;;;223004;1263;24299;-53
2024/01/11 04:48:07;;;;;;;66.30;48.90;;;22.70;45.10;;;;;;223467;1266;23007;-53
2024/01/11 04:53:12;;;;;;;66.20;51.10;;;22.80;44.60;;;;;;222497;1264;22523;-52
2024/01/11 04:58:16;;;;;;;65.10;48.20;;;22.90;44.80;;;;;;222103;1254;25225;-51
2024/01/11 05:03:20;;;;;;;67.00;48.50;;;22.90;44.20;;;;;;223314;1262;23129;-52
2024/01/11 05:08:29;;;;;;;61.10;48.20;;;22.90;44.20;;;;;;222517;1266;25390;-54
2024/01/11 05:13:33;;;;;;;62.70;48.20;;;22.80;44.20;;;;;;223066;1263;24288;-52
2024/01/11 05:18:37;;;;;;;63.00;47.40;;;22.80;44.10;;;;;;223618;1264;24194;-55
2024/01/11 05:23:45;;;;;;;63.70;49.30;;;22.80;44.10;;;;;;225648;1261;25202;-54
2024/01/11 05:28:50;;;;;;;63.60;47.20;;;22.70;44.10;;;;;;223334;1264;22530;-52
2024/01/11 05:33:54;;;;;;;62.30;46.90;;;22.70;44.30;;;;;;222682;1266;22520;-52
2024/01/11 05:38:59;;;;;;;64.00;47.00;;;22.50;44.60;;;;;;222519;1268;24269;-54
2024/01/11 05:44:04;;;;;;;64.90;47.90;;;22.40;44.40;;;;;;222171;1265;301736;-52
2024/01/11 05:49:08;;;;;;;62.10;46.40;;;22.30;44.20;;;;;;222422;1261;24315;-50
2024/01/11 05:54:13;;;;;;;61.60;47.20;;;22.20;44.60;;;;;;222550;1260;22769;-53
2024/01/11 05:59:18;;;;;;;58.70;45.40;;;22.10;44.80;;;;;;222513;1267;22524;-54
2024/01/11 06:04:22;;;;;;;61.70;46.10;;;22.10;45.30;;;;;;222687;1264;25399;-54
2024/01/11 06:09:27;;;;;;;60.40;44.50;;;22.50;44.40;;;;;;222077;1260;23865;-53
2024/01/11 06:14:31;;;;;;;58.50;45.10;;;23.00;43.40;;;;;;223827;1266;22517;-54
2024/01/11 06:19:35;;;;;;;56.20;42.80;;;23.00;43.50;;;;;;222783;1267;23507;-53
2024/01/11 06:24:39;;;;;;;56.80;43.70;;;22.90;43.50;;;;;;222653;1256;22543;-51
2024/01/11 06:29:43;;;;;;;55.20;43.70;;;22.80;43.70;;;;;;222504;1263;24222;-55
2024/01/11 06:34:48;;;;;;;53.40;42.50;;;22.80;43.60;;;;;;221910;1267;25298;-54
2024/01/11 06:39:52;;;;;;;55.40;43.50;;;22.90;43.70;;;;;;222437;1257;24221;-54
2024/01/11 06:44:57;;;;;;;57.20;42.30;;;22.80;43.70;;;;;;222508;1266;24072;-50
2024/01/11 06:50:03;;;;;;;56.30;41.40;;;22.80;45.50;;;;;;222701;1267;23852;-50
2024/01/11 06:55:08;;;;;;;52.80;39.80;;;22.70;45.00;;;;;;222630;1263;22531;-51
2024/01/11 07:00:13;;;;;;;50.70;40.10;;;22.60;46.00;;;;;;221642;1263;22556;-49
2024/01/11 07:05:17;;;;;;;57.90;40.40;;;22.40;45.70;;;;;;224164;1273;23336;-52
2024/01/11 07:10:21;;;;;;;56.40;38.90;;;22.40;46.10;;;;;;227602;1265;25296;-50
2024/01/11 07:15:26;;;;;;;50.80;39.50;;;22.50;46.40;;;;;;225504;1268;22783;-47
2024/01/11 07:20:30;;;;;;;51.50;39.00;;;22.50;46.00;;;;;;221324;1268;22546;-46
2024/01/11 07:25:35;;;;;;;51.30;37.20;;;22.40;46.00;;;;;;222821;1267;22660;-50
2024/01/11 07:30:39;;;;;;;53.10;38.80;;;22.50;46.80;;;;;;223279;1264;23138;-49
2024/01/11 07:35:45;;;;;;;62.10;37.50;;;22.40;46.60;;;;;;227507;1265;22527;-51
2024/01/11 07:40:50;;;;;;;49.90;37.60;;;22.70;46.30;;;;;;224127;1265;25287;-49
2024/01/11 07:45:58;;;;;;;50.70;36.40;;;22.70;46.20;;;;;;222455;1247;23971;-48
2024/01/11 07:51:02;;;;;;;57.20;42.90;;;22.70;46.00;;;;;;222549;1259;22642;-51
2024/01/11 07:56:07;;;;;;;56.50;39.60;;;22.70;43.20;;;;;;225811;1266;22531;-53
2024/01/11 08:01:12;;;;;;;55.30;38.40;;;22.80;43.30;;;;;;222086;1264;22641;-47
2024/01/11 08:06:16;;;;;;;50.90;37.70;;;22.90;43.10;;;;;;225923;1251;22629;-48
2024/01/11 08:11:21;;;;;;;51.70;38.60;;;22.90;43.00;;;;;;222546;1266;22537;-50
2024/01/11 08:16:25;;;;;;;50.70;37.60;;;22.90;43.00;;;;;;222152;1264;24239;-46
2024/01/11 08:21:29;;;;;;;52.10;37.10;;;22.70;43.10;;;;;;222448;1265;25272;-50
2024/01/11 08:26:34;;;;;;;49.90;35.90;;;22.60;43.10;;;;;;222606;1265;24121;-50
2024/01/11 08:31:38;;;;;;;45.60;33.90;;;22.50;43.20;;;;;;222440;1267;24996;-49
2024/01/11 08:36:43;;;;;;;45.40;34.80;;;22.40;43.80;;;;;;222799;1253;22520;-48
2024/01/11 08:41:47;;;;;;;43.70;32.60;;;22.30;43.70;;;;;;230080;1262;22269;-47
2024/01/11 08:46:51;;;;;;;45.80;34.70;;;22.40;43.40;;;;;;226718;1267;24235;-47
2024/01/11 08:51:56;;;;;;;48.30;34.70;;;22.40;43.10;;;;;;222927;1263;24347;-49
2024/01/11 08:57:01;;;;;;;41.70;32.60;;;22.50;43.10;;;;;;223472;1267;23000;-46
2024/01/11 09:02:05;;;;;;;40.30;32.40;;;22.60;43.00;;;;;;223685;1262;22528;-50
2024/01/11 09:07:20;;;;;;;39.60;32.00;;;22.70;42.80;;;;;;222745;1252;24260;-49
2024/01/11 09:12:24;;;;;;;43.20;31.60;;;22.80;42.70;;;;;;222348;1264;22988;-49
2024/01/11 09:17:28;;;;;;;43.70;31.30;;;22.90;42.50;;;;;;222704;1264;22700;-49
2024/01/11 09:22:33;;;;;;;37.90;29.70;;;22.90;42.50;;;;;;222600;1265;22591;-49
2024/01/11 09:27:38;;;;;;;38.30;30.90;;;22.90;42.40;;;;;;222869;1264;24226;-50
2024/01/11 09:32:42;;;;;;;38.40;29.50;;;22.90;42.20;;;;;;222568;1254;22528;-49
2024/01/11 09:37:46;;;;;;;37.40;28.90;;;22.80;42.30;;;;;;222285;1264;25616;-47
2024/01/11 09:42:51;;;;;;;33.10;27.20;;;22.80;42.30;;;;;;222697;1265;25385;-49
2024/01/11 09:47:55;;;;;;;35.20;28.10;;;22.80;42.30;;;;;;222990;1261;24187;-48
2024/01/11 09:53:05;;;;;;;34.60;27.10;;;22.70;42.80;;;;;;222621;1260;24184;-49
2024/01/11 09:58:10;;;;;;;36.30;28.30;;;22.80;42.70;;;;;;222645;1267;23168;-49
2024/01/11 10:03:14;;;;;;;34.90;26.80;;;22.60;42.60;;;;;;222511;1267;22524;-47
2024/01/11 10:08:21;;;;;;;36.60;27.40;;;22.50;42.50;;;;;;222517;1266;24153;-50
2024/01/11 10:13:32;;;;;;;30.80;25.40;;;22.40;42.10;;;;;;223018;1264;24366;-47
2024/01/11 10:18:36;;;;;;;32.90;25.30;;;22.40;42.30;;;;;;222715;1265;22527;-49
2024/01/11 10:23:41;;;;;;;32.20;25.40;;;22.50;42.30;;;;;;222663;1264;22517;-48
2024/01/11 10:28:46;;;;;;;32.10;25.40;;;22.60;42.30;;;;;;222468;1266;22526;-50
2024/01/11 10:33:51;;;;;;;32.50;24.20;;;22.60;42.40;;;;;;222391;1267;25297;-50
2024/01/11 10:38:56;;;;;;;43.50;25.30;;;22.90;42.30;;;;;;222485;1266;24083;-47
2024/01/11 10:44:01;;;;;;;27.80;23.10;;;23.00;42.20;;;;;;222779;1267;25706;-51
2024/01/11 10:49:07;;;;;;;29.00;23.00;;;23.00;42.00;;;;;;222615;1265;22583;-48
2024/01/11 10:54:14;;;;;;;29.30;22.20;;;23.00;42.00;;;;;;222815;1264;22527;-48
2024/01/11 10:59:24;;;;;;;31.60;22.10;;;23.00;42.00;;;;;;222937;1260;22514;-51
2024/01/11 11:04:35;;;;;;;26.20;21.90;;;23.00;41.70;;;;;;222498;1267;23950;-47
2024/01/11 11:09:43;;;;;;;28.20;21.50;;;22.80;42.10;;;;;;222916;1268;24385;-48
2024/01/11 11:14:49;;;;;;;26.30;21.40;;;22.80;42.20;;;;;;222677;1266;24381;-51
2024/01/11 11:19:53;;;;;;;25.10;20.60;;;22.60;42.60;;;;;;222504;1264;24267;-50
2024/01/11 11:25:10;;;;;;;28.40;21.00;;;22.50;42.60;;;;;;222496;1263;22562;-48
2024/01/11 11:30:14;;;;;;;25.30;19.40;;;22.40;42.70;;;;;;223240;1260;22601;-48
2024/01/11 11:35:19;;;;;;;27.80;20.50;;;22.50;42.50;;;;;;222858;1261;25489;-48
2024/01/11 11:40:54;;;;;;;28.70;21.20;;;22.50;42.30;;;;;;222429;1262;24306;-47
2024/01/11 11:46:07;;;;;;;26.80;20.60;;;22.70;42.20;;;;;;221542;1270;22606;-48
2024/01/11 11:51:14;;;;;;;23.00;20.00;;;22.70;42.20;;;;;;221352;1269;24630;-51
2024/01/11 11:56:23;;;;;;;23.00;19.40;;;22.80;41.90;;;;;;221135;1273;24182;-50
2024/01/11 12:01:31;;;;;;;21.70;18.50;;;23.00;41.70;;;;;;221575;1273;25616;-47
2024/01/11 12:06:35;;;;;;;22.90;19.40;;;23.10;41.50;;;;;;221426;1272;22542;-47
2024/01/11 12:11:40;;;;;;;21.90;18.50;;;23.10;41.50;;;;;;225395;1268;24417;-52
2024/01/11 12:16:44;;;;;;;21.70;18.00;;;23.10;40.60;;;;;;221164;1274;24365;-52
2024/01/11 12:21:50;;;;;;;21.80;18.60;;;23.10;40.80;;;;;;222052;1265;24174;-49
2024/01/11 12:26:54;;;;;;;22.60;18.00;;;23.10;41.00;;;;;;222967;1260;22529;-48
2024/01/11 12:32:00;;;;;;;21.30;17.80;;;23.00;41.10;;;;;;222054;1255;25349;-48
2024/01/11 12:37:05;;;;;;;21.00;17.80;;;23.00;41.40;;;;;;222899;1263;25398;-48
2024/01/11 12:42:10;;;;;;;20.60;16.80;;;22.90;41.30;;;;;;222292;1263;22515;-49
2024/01/11 12:47:14;;;;;;;21.00;17.50;;;22.90;41.40;;;;;;222542;1265;22520;-48
2024/01/11 12:52:19;;;;;;;20.60;17.00;;;22.80;41.70;;;;;;222440;1259;24186;-49
2024/01/11 12:57:24;;;;;;;19.70;16.80;;;22.80;41.40;;;;;;222443;1263;22516;-47
2024/01/11 13:02:31;;;;;;;19.30;16.20;;;22.70;42.00;;;;;;222535;1260;22518;-48
2024/01/11 13:07:37;;;;;;;20.50;16.30;;;22.60;41.60;;;;;;222233;1260;22560;-46
2024/01/11 13:12:41;;;;;;;21.10;17.10;;;22.70;41.90;;;;;;222406;1261;22514;-46
2024/01/11 13:17:51;;;;;;;21.90;16.60;;;22.70;41.40;;;;;;222333;1266;24183;-48
2024/01/11 13:23:14;;;;;;;18.80;14.90;;;23.00;41.10;;;;;;222275;1266;22521;-48
2024/01/11 13:28:19;;;;;;;21.90;15.30;;;23.10;41.20;;;;;;222270;1266;25603;-48
2024/01/11 13:33:23;;;;;;;18.70;15.20;;;23.10;40.90;;;;;;222385;1266;24379;-47
2024/01/11 13:38:28;;;;;;;17.10;14.50;;;23.20;40.80;;;;;;227340;1265;22602;-50
2024/01/11 13:43:32;;;;;;;22.50;15.40;;;23.30;40.70;;;;;;228323;1263;25498;-47
2024/01/11 13:48:38;;;;;;;17.60;15.40;;;23.30;40.60;;;;;;223794;1258;24240;-51
2024/01/11 13:53:42;;;;;;;21.70;15.70;;;23.10;40.70;;;;;;222825;1260;25366;-48
2024/01/11 13:58:47;;;;;;;17.80;14.50;;;23.00;40.90;;;;;;222631;1265;22550;-48
2024/01/11 14:03:52;;;;;;;18.70;14.40;;;22.80;41.00;;;;;;222587;1253;25325;-50
2024/01/11 14:08:57;;;;;;;17.80;13.90;;;22.60;41.10;;;;;;222738;1268;24197;-48
2024/01/11 14:14:02;;;;;;;16.70;13.70;;;22.50;41.40;;;;;;222516;1266;24235;-48
2024/01/11 14:19:08;;;;;;;15.50;13.90;;;22.40;41.30;;;;;;222890;1259;24238;-49
2024/01/11 14:24:13;;;;;;;18.10;14.40;;;22.50;41.40;;;;;;222684;1267;24250;-48
2024/01/11 14:29:18;;;;;;;20.80;14.80;;;22.50;41.30;;;;;;222498;1265;23142;-47
2024/01/11 14:34:23;;;;;;;16.70;13.80;;;22.60;41.00;;;;;;222859;1266;25482;-47
2024/01/11 14:39:31;;;;;;;16.60;13.40;;;22.70;41.00;;;;;;221675;1272;25329;-49
2024/01/11 14:44:36;;;;;;;18.80;13.20;;;22.80;40.80;;;;;;221959;1271;23879;-50
2024/01/11 14:49:41;;;;;;;18.20;14.10;;;22.80;41.30;;;;;;221787;1266;22581;-50
2024/01/11 14:54:49;;;;;;;15.70;13.40;;;22.70;44.10;;;;;;221672;1268;22544;-49
2024/01/11 14:59:53;;;;;;;17.20;14.20;;;22.70;44.40;;;;;;222171;1253;23262;-49
2024/01/11 15:04:59;;;;;;;18.90;13.20;;;22.80;42.50;;;;;;222369;1261;24067;-49
2024/01/11 15:10:04;;;;;;;18.80;13.40;;;22.60;41.60;;;;;;222638;1265;22644;-50
2024/01/11 15:15:10;;;;;;;14.30;12.40;;;22.60;43.80;;;;;;222806;1263;25498;-50
2024/01/11 15:20:16;;;;;;;16.40;12.10;;;22.60;41.80;;;;;;222691;1267;22536;-52
2024/01/11 15:25:20;;;;;;;14.10;11.70;;;22.40;40.80;;;;;;222902;1260;24231;-52
2024/01/11 15:30:25;;;;;;;15.50;11.30;;;22.20;40.70;;;;;;222624;1265;24458;-52
2024/01/11 15:35:29;;;;;;;14.00;11.60;;;22.20;40.40;;;;;;222558;1263;22524;-48
2024/01/11 15:40:34;;;;;;;15.50;11.10;;;22.20;40.90;;;;;;222476;1265;22570;-50
2024/01/11 15:45:38;;;;;;;15.00;11.20;;;22.00;39.90;;;;;;222569;1267;24311;-52
2024/01/11 15:50:42;;;;;;;12.50;10.20;;;22.10;40.80;;;;;;222382;1263;24257;-50
2024/01/11 15:55:48;;;;;;;14.60;10.10;;;22.40;40.60;;;;;;222332;1268;22527;-49
2024/01/11 16:00:53;;;;;;;13.80;9.30;;;22.50;40.50;;;;;;222865;1259;24295;-50
2024/01/11 16:05:57;;;;;;;13.10;9.00;;;22.70;40.90;;;;;;222586;1260;22649;-51
2024/01/11 16:11:02;;;;;;;11.70;9.00;;;22.90;41.70;;;;;;222521;1260;24250;-47
2024/01/11 16:16:07;;;;;;;13.00;8.70;;;22.90;40.80;;;;;;222390;1267;23000;-49
2024/01/11 16:21:11;;;;;;;11.10;8.90;;;23.00;40.90;;;;;;222027;1260;22519;-50
2024/01/11 16:26:16;;;;;;;11.40;8.80;;;22.90;41.50;;;;;;221888;1266;25975;-53
2024/01/11 16:31:24;;;;;;;15.20;8.90;;;22.80;41.30;;;;;;222728;1263;25253;-52
2024/01/11 16:36:28;;;;;;;12.50;9.10;;;22.70;41.70;;;;;;222488;1266;24190;-53
2024/01/11 16:41:33;;;;;;;10.70;8.70;;;22.70;42.00;;;;;;222071;1266;22520;-53
2024/01/11 16:46:39;;;;;;;10.20;8.10;;;22.60;42.50;;;;;;222353;1259;24424;-53
2024/01/11 16:51:46;;;;;;;16.10;8.30;;;22.50;42.20;;;;;;222218;1263;22540;-52
2024/01/11 16:56:55;;;;;;;15.40;8.10;;;22.40;42.30;;;;;;222400;1265;24194;-49
2024/01/11 17:02:06;;;;;;;12.40;7.90;;;22.50;42.20;;;;;;221787;1261;22662;-52
2024/01/11 17:07:34;;;;;;;10.90;7.30;;;22.60;42.60;;;;;;222825;1265;25316;-51
2024/01/11 17:13:04;;;;;;;7.60;6.90;;;22.50;42.10;;;;;;222208;1263;25499;-47
2024/01/11 17:18:15;;;;;;;12.90;7.30;;;22.50;42.10;;;;;;222123;1262;22552;-52
2024/01/11 17:23:36;;;;;;;12.50;7.10;;;22.60;42.10;;;;;;222011;1267;22738;-50
2024/01/11 17:28:41;;;;;;;7.40;6.60;;;22.80;42.60;;;;;;222000;1267;22874;-50
2024/01/11 17:33:45;;;;;;;8.40;6.50;;;22.80;42.20;;;;;;222364;1264;24249;-52
2024/01/11 17:38:51;;;;;;;19.50;8.00;;;23.00;42.00;;;;;;222106;1266;26644;-52
2024/01/11 17:43:59;;;;;;;9.30;6.80;;;23.00;41.70;;;;;;222031;1252;322164;-49
2024/01/11 17:49:04;;;;;;;11.10;6.90;;;23.00;41.50;;;;;;222134;1268;22567;-54
2024/01/11 17:54:09;;;;;;;11.90;7.10;;;22.90;42.10;;;;;;222542;1266;24236;-52
2024/01/11 17:59:13;;;;;;;9.90;7.80;;;22.80;42.40;;;;;;222766;1266;25597;-48
2024/01/11 18:04:18;;;;;;;10.20;6.50;;;22.70;42.20;;;;;;226195;1266;22693;-49
2024/01/11 18:09:23;;;;;;;8.20;6.60;;;22.50;40.90;;;;;;221889;1267;23149;-47
2024/01/11 18:14:28;;;;;;;10.60;6.50;;;22.50;41.30;;;;;;222650;1263;24997;-46
2024/01/11 18:19:33;;;;;;;11.40;6.70;;;22.60;41.00;;;;;;221874;1250;22765;-46
2024/01/11 18:24:37;;;;;;;8.80;6.00;;;22.50;40.00;;;;;;222095;1266;22729;-48
2024/01/11 18:29:41;;;;;;;8.50;7.20;;;22.70;39.70;;;;;;222226;1266;25534;-48
2024/01/11 18:34:46;;;;;;;6.80;5.30;;;23.10;39.10;;;;;;221949;1260;22850;-49
2024/01/11 18:39:52;;;;;;;7.50;5.50;;;23.20;39.10;;;;;;222075;1250;24206;-49
2024/01/11 18:45:01;;;;;;;6.40;5.50;;;23.20;39.10;;;;;;222321;1254;22693;-48
2024/01/11 18:50:07;;;;;;;5.40;4.80;;;23.20;39.30;;;;;;222662;1261;22553;-49
2024/01/11 18:55:12;;;;;;;7.40;5.40;;;23.30;39.80;;;;;;222920;1266;24890;-49
2024/01/11 19:00:22;;;;;;;6.60;4.70;;;23.20;39.90;;;;;;222442;1266;22777;-48
2024/01/11 19:05:31;;;;;;;5.40;4.80;;;23.00;40.20;;;;;;222801;1265;22525;-46
2024/01/11 19:10:37;;;;;;;5.10;4.60;;;22.90;40.80;;;;;;222186;1268;25482;-47
2024/01/11 19:15:41;;;;;;;8.80;5.10;;;22.80;40.50;;;;;;222378;1250;24203;-46
2024/01/11 19:20:52;;;;;;;7.20;5.20;;;22.60;40.60;;;;;;222495;1266;22576;-48
2024/01/11 19:25:59;;;;;;;5.50;5.00;;;22.50;40.30;;;;;;222483;1264;23915;-46
2024/01/11 19:31:04;;;;;;;4.60;4.20;;;22.50;40.60;;;;;;222474;1267;22518;-47
2024/01/11 19:36:09;;;;;;;8.60;4.90;;;22.40;41.10;;;;;;222376;1267;22550;-48
2024/01/11 19:41:20;;;;;;;9.00;5.00;;;22.50;40.80;;;;;;222186;1257;22517;-46
2024/01/11 19:46:25;;;;;;;6.00;4.90;;;22.50;41.00;;;;;;222900;1267;22534;-46
2024/01/11 19:51:29;;;;;;;5.20;4.40;;;22.40;41.50;;;;;;222432;1262;24193;-46
2024/01/11 19:56:34;;;;;;;6.20;4.80;;;22.60;42.20;;;;;;221677;1267;24201;-48
2024/01/11 20:01:40;;;;;;;8.20;4.90;;;22.90;41.80;;;;;;221190;1267;22612;-49
2024/01/11 20:06:45;;;;;;;9.40;4.80;;;23.00;41.50;;;;;;221352;1270;25413;-49
2024/01/11 20:11:50;;;;;;;7.90;4.90;;;23.10;41.00;;;;;;221425;1260;24478;-48
2024/01/11 20:16:55;;;;;;;6.90;4.70;;;23.00;41.30;;;;;;222312;1267;22828;-46
2024/01/11 20:22:00;;;;;;;6.60;5.30;;;22.90;41.60;;;;;;222253;1262;25502;-47
2024/01/11 20:27:05;;;;;;;8.50;5.10;;;23.00;43.50;;;;;;222932;1260;24968;-48
2024/01/11 20:32:10;;;;;;;7.80;4.60;;;22.70;42.80;;;;;;222416;1266;24375;-47
2024/01/11 20:37:14;;;;;;;5.60;4.70;;;22.50;43.30;;;;;;222613;1265;25454;-46
2024/01/11 20:42:19;;;;;;;7.00;4.30;;;22.40;43.30;;;;;;222562;1263;24346;-46
2024/01/11 20:47:25;;;;;;;7.30;5.00;;;22.50;43.00;;;;;;222567;1267;22641;-47
2024/01/11 20:52:31;;;;;;;5.50;4.70;;;22.50;42.90;;;;;;222635;1267;24193;-50
2024/01/11 20:57:36;;;;;;;9.40;5.60;;;22.40;43.20;;;;;;222705;1266;24377;-47
2024/01/11 21:02:45;;;;;;;46.10;22.10;;;22.50;43.40;;;;;;222647;1264;24189;-47
2024/01/11 21:07:50;;;;;;;92.40;40.00;;;22.50;43.60;;;;;;222630;1263;26560;-46
2024/01/11 21:12:54;;;;;;;67.20;33.20;;;22.60;43.10;;;;;;222969;1265;22522;-48
2024/01/11 21:17:58;;;;;;;83.30;36.60;;;22.70;44.30;;;;;;222614;1260;24190;-51
2024/01/11 21:23:05;;;;;;;76.10;34.60;;;22.70;43.70;;;;;;223211;1264;24223;-47
2024/01/11 21:28:13;;;;;;;66.70;31.50;;;22.80;44.80;;;;;;222860;1256;24238;-51
2024/01/11 21:33:42;;;;;;;67.60;31.00;;;22.80;43.80;;;;;;222330;1263;24238;-48
2024/01/11 21:38:47;;;;;;;69.60;31.90;;;22.80;44.20;;;;;;222435;1266;24050;-48
2024/01/11 21:43:54;;;;;;;64.50;30.40;;;22.80;43.90;;;;;;222445;1264;24262;-48
2024/01/11 21:49:00;;;;;;;60.00;29.80;;;22.80;44.30;;;;;;222737;1261;22510;-49
2024/01/11 21:54:07;;;;;;;61.80;28.80;;;22.80;44.70;;;;;;222410;1261;22877;-52
2024/01/11 21:59:11;;;;;;;52.80;27.60;;;22.80;45.10;;;;;;222107;1267;25312;-49
2024/01/11 22:04:15;;;;;;;60.80;30.60;;;22.90;44.40;;;;;;222844;1260;22738;-50
2024/01/11 22:09:21;;;;;;;60.00;28.00;;;22.90;47.30;;;;;;222879;1264;22539;-48
2024/01/11 22:14:25;;;;;;;52.20;26.90;;;22.90;48.50;;;;;;223120;1266;22524;-52
2024/01/11 22:19:29;;;;;;;56.90;26.10;;;22.90;47.40;;;;;;222753;1267;24230;-50
2024/01/11 22:24:35;;;;;;;46.40;24.20;;;22.80;46.20;;;;;;222551;1266;24225;-49
2024/01/11 22:29:39;;;;;;;46.20;25.00;;;22.60;45.80;;;;;;222223;1260;24053;-48
2024/01/11 22:34:43;;;;;;;47.20;23.80;;;22.50;46.00;;;;;;222874;1264;22534;-49
2024/01/11 22:39:48;;;;;;;44.70;24.00;;;22.40;46.30;;;;;;222898;1262;24200;-49
2024/01/11 22:44:57;;;;;;;39.80;21.90;;;22.50;45.60;;;;;;222348;1264;24364;-48
2024/01/11 22:50:02;;;;;;;41.70;21.60;;;22.60;45.40;;;;;;222863;1260;22618;-48
2024/01/11 22:55:06;;;;;;;43.60;20.90;;;22.90;45.70;;;;;;222908;1261;24220;-47
2024/01/11 23:00:25;;;;;;;39.40;21.10;;;23.10;45.60;;;;;;223061;1267;25414;-49
2024/01/11 23:05:29;;;;;;;36.30;19.50;;;23.30;45.40;;;;;;222655;1264;26496;-48
2024/01/11 23:10:35;;;;;;;39.40;20.60;;;23.30;45.40;;;;;;222146;1267;22517;-51
2024/01/11 23:15:41;;;;;;;37.70;20.60;;;23.30;45.60;;;;;;222810;1254;25490;-47
2024/01/11 23:20:45;;;;;;;36.30;19.80;;;23.00;45.70;;;;;;222521;1260;25335;-49
2024/01/11 23:25:51;;;;;;;35.20;19.10;;;22.90;46.20;;;;;;222565;1261;22636;-49
2024/01/11 23:30:59;;;;;;;32.20;18.00;;;22.80;46.00;;;;;;222319;1265;24225;-50
2024/01/11 23:36:04;;;;;;;31.40;17.50;;;22.80;46.00;;;;;;222530;1260;24241;-49
2024/01/11 23:41:08;;;;;;;29.10;17.20;;;22.80;45.80;;;;;;223060;1267;24190;-53
2024/01/11 23:46:12;;;;;;;28.80;17.00;;;22.70;46.00;;;;;;222561;1260;25329;-51
2024/01/11 23:51:17;;;;;;;33.90;17.60;;;22.70;46.10;;;;;;222569;1257;24237;-51
2024/01/11 23:56:22;;;;;;;29.80;17.00;;;22.70;49.70;;;;;;222341;1260;22565;-49
